sensor_id;sensor_type;location;lat;lon;timestamp;temperature;humidity
23335;DHT22;11839;48.598;8.870;2024-01-15T00:01:14;1.90;99.90
23335;DHT22;11839;48.598;8.870;2024-01-15T00:03:41;1.70;99.90
23335;DHT22;11839;48.598;8.870;2024-01-15T00:06:08;1.80;99.90
23335;DHT22;11839;48.598;8.870;2024-01-15T00:08:35;1.80;99.90
23335;DHT22;11839;48.598;8.870;2024-01-15T00:11:03;1.90;99.90
23335;DHT22;11839;48.598;8.870;2024-01-15T00:13:30;1.60;99.90
23335;DHT22;11839;48.598;8.870;2024-01-15T00:15:56;1.70;99.90
23335;DHT22;11839;48.598;8.870;2024-01-15T00:18:23;1.80;99.90
23335;DHT22;11839;48.598;8.870;2024-01-15T00:20:50;1.70;99.90
23335;DHT22;11839;48.598;8.870;2024-01-15T00:23:17;1.80;99.90
23335;DHT22;11839;48.598;8.870;2024-01-15T00:25:43;2.00;99.90
23335;DHT22;11839;48.598;8.870;2024-01-15T00:28:12;1.70;99.90
23335;DHT22;11839;48.598;8.870;2024-01-15T00:30:38;1.60;99.90
23335;DHT22;11839;48.598;8.870;2024-01-15T00:33:05;1.60;99.90
23335;DHT22;11839;48.598;8.870;2024-01-15T00:35:32;1.50;99.90
23335;DHT22;11839;48.598;8.870;2024-01-15T00:37:59;1.60;99.90
23335;DHT22;11839;48.598;8.870;2024-01-15T00:40:26;1.50;99.90
23335;DHT22;11839;48.598;8.870;2024-01-15T00:42:53;1.60;99.90
23335;DHT22;11839;48.598;8.870;2024-01-15T00:45:21;1.60;99.90
23335;DHT22;11839;48.598;8.870;2024-01-15T00:47:49;1.60;99.90
23335;DHT22;11839;48.598;8.870;2024-01-15T00:50:16;1.70;99.90
23335;DHT22;11839;48.598;8.870;2024-01-15T00:52:42;1.90;99.90
23335;DHT22;11839;48.598;8.870;2024-01-15T00:55:09;2.00;99.90
23335;DHT22;11839;48.598;8.870;2024-01-15T00:57:36;1.90;99.90
23335;DHT22;11839;48.598;8.870;2024-01-15T01:00:04;1.80;99.90
23335;DHT22;11839;48.598;8.870;2024-01-15T01:02:33;1.60;99.90
23335;DHT22;11839;48.598;8.870;2024-01-15T01:05:00;1.70;99.90
23335;DHT22;11839;48.598;8.870;2024-01-15T01:07:26;1.80;99.90
23335;DHT22;11839;48.598;8.870;2024-01-15T01:09:53;1.90;99.90
23335;DHT22;11839;48.598;8.870;2024-01-15T01:12:20;2.20;99.90
23335;DHT22;11839;48.598;8.870;2024-01-15T01:14:47;2.20;99.90
23335;DHT22;11839;48.598;8.870;2024-01-15T01:17:13;2.30;99.90
23335;DHT22;11839;48.598;8.870;2024-01-15T01:19:41;2.20;99.90
23335;DHT22;11839;48.598;8.870;2024-01-15T01:22:08;2.30;99.90
23335;DHT22;11839;48.598;8.870;2024-01-15T01:24:35;2.20;99.90
23335;DHT22;11839;48.598;8.870;2024-01-15T01:27:02;2.00;99.90
23335;DHT22;11839;48.598;8.870;2024-01-15T01:29:29;1.80;99.90
23335;DHT22;11839;48.598;8.870;2024-01-15T01:31:56;1.80;99.90
23335;DHT22;11839;48.598;8.870;2024-01-15T01:34:23;2.10;99.90
23335;DHT22;11839;48.598;8.870;2024-01-15T01:36:51;1.50;99.90
23335;DHT22;11839;48.598;8.870;2024-01-15T01:39:18;1.30;99.90
23335;DHT22;11839;48.598;8.870;2024-01-15T01:41:45;1.40;99.90
23335;DHT22;11839;48.598;8.870;2024-01-15T01:44:11;1.30;99.90
23335;DHT22;11839;48.598;8.870;2024-01-15T01:46:38;1.30;99.90
23335;DHT22;11839;48.598;8.870;2024-01-15T01:49:06;1.30;99.90
23335;DHT22;11839;48.598;8.870;2024-01-15T01:51:35;1.10;99.90
23335;DHT22;11839;48.598;8.870;2024-01-15T01:54:04;1.00;99.90
23335;DHT22;11839;48.598;8.870;2024-01-15T01:56:33;1.30;99.90
23335;DHT22;11839;48.598;8.870;2024-01-15T01:59:01;1.30;99.90
23335;DHT22;11839;48.598;8.870;2024-01-15T02:01:29;1.30;99.90
23335;DHT22;11839;48.598;8.870;2024-01-15T02:03:56;1.30;99.90
23335;DHT22;11839;48.598;8.870;2024-01-15T02:06:23;1.20;99.90
23335;DHT22;11839;48.598;8.870;2024-01-15T02:08:50;1.10;99.90
23335;DHT22;11839;48.598;8.870;2024-01-15T02:11:18;1.10;99.90
23335;DHT22;11839;48.598;8.870;2024-01-15T02:17:07;1.20;99.90
23335;DHT22;11839;48.598;8.870;2024-01-15T02:19:34;0.80;99.90
23335;DHT22;11839;48.598;8.870;2024-01-15T02:22:01;1.00;99.90
23335;DHT22;11839;48.598;8.870;2024-01-15T02:24:29;0.70;99.90
23335;DHT22;11839;48.598;8.870;2024-01-15T02:26:56;0.80;99.90
23335;DHT22;11839;48.598;8.870;2024-01-15T02:29:22;0.70;99.90
23335;DHT22;11839;48.598;8.870;2024-01-15T02:31:49;0.70;99.90
23335;DHT22;11839;48.598;8.870;2024-01-15T02:34:16;0.80;99.90
23335;DHT22;11839;48.598;8.870;2024-01-15T02:36:43;1.00;99.90
23335;DHT22;11839;48.598;8.870;2024-01-15T02:39:10;1.10;99.90
23335;DHT22;11839;48.598;8.870;2024-01-15T02:41:38;1.30;99.90
23335;DHT22;11839;48.598;8.870;2024-01-15T02:44:04;1.00;99.90
23335;DHT22;11839;48.598;8.870;2024-01-15T02:46:31;1.10;99.90
23335;DHT22;11839;48.598;8.870;2024-01-15T02:48:58;0.80;99.90
23335;DHT22;11839;48.598;8.870;2024-01-15T02:51:25;0.90;99.90
23335;DHT22;11839;48.598;8.870;2024-01-15T02:53:52;0.80;99.90
23335;DHT22;11839;48.598;8.870;2024-01-15T02:56:19;0.70;99.90
23335;DHT22;11839;48.598;8.870;2024-01-15T02:58:47;0.80;99.90
23335;DHT22;11839;48.598;8.870;2024-01-15T03:01:14;1.00;99.90
23335;DHT22;11839;48.598;8.870;2024-01-15T03:03:41;1.10;99.90
23335;DHT22;11839;48.598;8.870;2024-01-15T03:06:08;1.00;99.90
23335;DHT22;11839;48.598;8.870;2024-01-15T03:08:34;1.00;99.90
23335;DHT22;11839;48.598;8.870;2024-01-15T03:11:01;0.90;99.90
23335;DHT22;11839;48.598;8.870;2024-01-15T03:13:28;1.10;99.90
23335;DHT22;11839;48.598;8.870;2024-01-15T03:15:56;1.50;99.90
23335;DHT22;11839;48.598;8.870;2024-01-15T03:18:23;1.20;99.90
23335;DHT22;11839;48.598;8.870;2024-01-15T03:20:50;1.40;99.90
23335;DHT22;11839;48.598;8.870;2024-01-15T03:23:17;1.40;99.90
23335;DHT22;11839;48.598;8.870;2024-01-15T03:25:43;1.60;99.90
23335;DHT22;11839;48.598;8.870;2024-01-15T03:28:10;1.90;99.90
23335;DHT22;11839;48.598;8.870;2024-01-15T03:30:37;1.80;99.90
23335;DHT22;11839;48.598;8.870;2024-01-15T03:33:05;1.70;99.90
23335;DHT22;11839;48.598;8.870;2024-01-15T03:35:32;2.00;99.90
23335;DHT22;11839;48.598;8.870;2024-01-15T03:37:59;2.20;99.90
23335;DHT22;11839;48.598;8.870;2024-01-15T03:40:26;2.50;99.90
23335;DHT22;11839;48.598;8.870;2024-01-15T03:42:53;2.40;99.90
23335;DHT22;11839;48.598;8.870;2024-01-15T03:45:20;2.40;99.90
23335;DHT22;11839;48.598;8.870;2024-01-15T03:47:47;2.30;99.90
23335;DHT22;11839;48.598;8.870;2024-01-15T03:50:15;2.20;99.90
23335;DHT22;11839;48.598;8.870;2024-01-15T03:52:42;2.20;99.90
23335;DHT22;11839;48.598;8.870;2024-01-15T03:55:09;2.30;99.90
23335;DHT22;11839;48.598;8.870;2024-01-15T03:57:35;2.40;99.90
23335;DHT22;11839;48.598;8.870;2024-01-15T04:00:03;2.30;99.90
23335;DHT22;11839;48.598;8.870;2024-01-15T04:02:30;2.20;99.90
23335;DHT22;11839;48.598;8.870;2024-01-15T04:04:56;2.30;99.90
23335;DHT22;11839;48.598;8.870;2024-01-15T04:07:25;2.10;99.90
23335;DHT22;11839;48.598;8.870;2024-01-15T04:09:51;2.10;99.90
23335;DHT22;11839;48.598;8.870;2024-01-15T04:12:18;2.10;99.90
23335;DHT22;11839;48.598;8.870;2024-01-15T04:14:45;2.20;99.90
23335;DHT22;11839;48.598;8.870;2024-01-15T04:17:12;2.00;99.90
23335;DHT22;11839;48.598;8.870;2024-01-15T04:19:38;2.00;99.90
23335;DHT22;11839;48.598;8.870;2024-01-15T04:22:09;1.90;99.90
23335;DHT22;11839;48.598;8.870;2024-01-15T04:24:37;1.90;99.90
23335;DHT22;11839;48.598;8.870;2024-01-15T04:27:04;2.00;99.90
23335;DHT22;11839;48.598;8.870;2024-01-15T04:29:31;2.30;99.90
23335;DHT22;11839;48.598;8.870;2024-01-15T04:31:58;2.20;99.90
23335;DHT22;11839;48.598;8.870;2024-01-15T04:34:25;2.20;99.90
23335;DHT22;11839;48.598;8.870;2024-01-15T04:36:51;2.40;99.90
23335;DHT22;11839;48.598;8.870;2024-01-15T04:39:18;2.60;99.90
23335;DHT22;11839;48.598;8.870;2024-01-15T04:45:09;2.60;99.90
23335;DHT22;11839;48.598;8.870;2024-01-15T04:47:35;2.40;99.90
23335;DHT22;11839;48.598;8.870;2024-01-15T04:50:03;2.40;99.90
23335;DHT22;11839;48.598;8.870;2024-01-15T04:55:52;2.30;99.90
23335;DHT22;11839;48.598;8.870;2024-01-15T04:58:19;2.20;99.90
23335;DHT22;11839;48.598;8.870;2024-01-15T05:00:47;2.20;99.90
23335;DHT22;11839;48.598;8.870;2024-01-15T05:03:14;2.30;99.90
23335;DHT22;11839;48.598;8.870;2024-01-15T05:05:41;2.50;99.90
23335;DHT22;11839;48.598;8.870;2024-01-15T05:08:07;2.70;99.90
23335;DHT22;11839;48.598;8.870;2024-01-15T05:10:35;2.40;99.90
23335;DHT22;11839;48.598;8.870;2024-01-15T05:13:02;2.70;99.90
23335;DHT22;11839;48.598;8.870;2024-01-15T05:15:28;2.70;99.90
23335;DHT22;11839;48.598;8.870;2024-01-15T05:17:56;2.50;99.90
23335;DHT22;11839;48.598;8.870;2024-01-15T05:20:23;2.50;99.90
23335;DHT22;11839;48.598;8.870;2024-01-15T05:22:50;2.40;99.90
23335;DHT22;11839;48.598;8.870;2024-01-15T05:25:17;2.40;99.90
23335;DHT22;11839;48.598;8.870;2024-01-15T05:27:43;2.50;99.90
23335;DHT22;11839;48.598;8.870;2024-01-15T05:30:11;2.60;99.90
23335;DHT22;11839;48.598;8.870;2024-01-15T05:32:38;2.50;99.90
23335;DHT22;11839;48.598;8.870;2024-01-15T05:35:07;2.50;99.90
23335;DHT22;11839;48.598;8.870;2024-01-15T05:37:33;2.20;99.90
23335;DHT22;11839;48.598;8.870;2024-01-15T05:40:00;2.00;99.90
23335;DHT22;11839;48.598;8.870;2024-01-15T05:42:28;2.30;99.90
23335;DHT22;11839;48.598;8.870;2024-01-15T05:44:56;2.10;99.90
23335;DHT22;11839;48.598;8.870;2024-01-15T05:47:24;2.00;99.90
23335;DHT22;11839;48.598;8.870;2024-01-15T05:49:51;2.30;99.90
23335;DHT22;11839;48.598;8.870;2024-01-15T05:55:41;2.50;99.90
23335;DHT22;11839;48.598;8.870;2024-01-15T05:58:08;2.30;99.90
23335;DHT22;11839;48.598;8.870;2024-01-15T06:00:35;2.40;99.90
23335;DHT22;11839;48.598;8.870;2024-01-15T06:03:03;2.50;99.90
23335;DHT22;11839;48.598;8.870;2024-01-15T06:05:30;2.50;99.90
23335;DHT22;11839;48.598;8.870;2024-01-15T06:07:57;2.50;99.90
23335;DHT22;11839;48.598;8.870;2024-01-15T06:10:24;2.50;99.90
23335;DHT22;11839;48.598;8.870;2024-01-15T06:12:52;2.40;99.90
23335;DHT22;11839;48.598;8.870;2024-01-15T06:15:19;2.30;99.90
23335;DHT22;11839;48.598;8.870;2024-01-15T06:17:45;2.10;99.90
23335;DHT22;11839;48.598;8.870;2024-01-15T06:20:13;2.00;99.90
23335;DHT22;11839;48.598;8.870;2024-01-15T06:22:39;1.90;99.90
23335;DHT22;11839;48.598;8.870;2024-01-15T06:25:07;1.80;99.90
23335;DHT22;11839;48.598;8.870;2024-01-15T06:27:34;2.00;99.90
23335;DHT22;11839;48.598;8.870;2024-01-15T06:30:02;2.00;99.90
23335;DHT22;11839;48.598;8.870;2024-01-15T06:32:29;2.10;99.90
23335;DHT22;11839;48.598;8.870;2024-01-15T06:34:56;2.00;99.90
23335;DHT22;11839;48.598;8.870;2024-01-15T06:37:23;2.00;99.90
23335;DHT22;11839;48.598;8.870;2024-01-15T06:39:49;2.10;99.90
23335;DHT22;11839;48.598;8.870;2024-01-15T06:42:16;2.00;99.90
23335;DHT22;11839;48.598;8.870;2024-01-15T06:44:43;2.10;99.90
23335;DHT22;11839;48.598;8.870;2024-01-15T06:47:11;2.10;99.90
23335;DHT22;11839;48.598;8.870;2024-01-15T06:49:39;2.30;99.90
23335;DHT22;11839;48.598;8.870;2024-01-15T06:52:06;2.30;99.90
23335;DHT22;11839;48.598;8.870;2024-01-15T06:54:33;2.20;99.90
23335;DHT22;11839;48.598;8.870;2024-01-15T06:57:00;2.10;99.90
23335;DHT22;11839;48.598;8.870;2024-01-15T06:59:26;2.00;99.90
23335;DHT22;11839;48.598;8.870;2024-01-15T07:01:53;2.00;99.90
23335;DHT22;11839;48.598;8.870;2024-01-15T07:04:22;2.10;99.90
23335;DHT22;11839;48.598;8.870;2024-01-15T07:06:48;2.30;99.90
23335;DHT22;11839;48.598;8.870;2024-01-15T07:09:15;2.40;99.90
23335;DHT22;11839;48.598;8.870;2024-01-15T07:11:44;2.30;99.90
23335;DHT22;11839;48.598;8.870;2024-01-15T07:14:12;2.40;99.90
23335;DHT22;11839;48.598;8.870;2024-01-15T07:16:39;2.50;99.90
23335;DHT22;11839;48.598;8.870;2024-01-15T07:19:06;2.50;99.90
23335;DHT22;11839;48.598;8.870;2024-01-15T07:21:34;2.50;99.90
23335;DHT22;11839;48.598;8.870;2024-01-15T07:24:01;2.50;99.90
23335;DHT22;11839;48.598;8.870;2024-01-15T07:26:29;2.40;99.90
23335;DHT22;11839;48.598;8.870;2024-01-15T07:28:56;2.30;99.90
23335;DHT22;11839;48.598;8.870;2024-01-15T07:31:23;2.30;99.90
23335;DHT22;11839;48.598;8.870;2024-01-15T07:33:50;2.40;99.90
23335;DHT22;11839;48.598;8.870;2024-01-15T07:36:16;2.60;99.90
23335;DHT22;11839;48.598;8.870;2024-01-15T07:38:44;2.60;99.90
23335;DHT22;11839;48.598;8.870;2024-01-15T07:41:12;2.80;99.90
23335;DHT22;11839;48.598;8.870;2024-01-15T07:43:39;2.80;99.90
23335;DHT22;11839;48.598;8.870;2024-01-15T07:46:06;2.50;99.90
23335;DHT22;11839;48.598;8.870;2024-01-15T07:48:33;2.70;99.90
23335;DHT22;11839;48.598;8.870;2024-01-15T07:51:00;2.80;99.90
23335;DHT22;11839;48.598;8.870;2024-01-15T07:53:26;2.90;99.90
23335;DHT22;11839;48.598;8.870;2024-01-15T07:55:55;2.90;99.90
23335;DHT22;11839;48.598;8.870;2024-01-15T07:58:21;2.90;99.90
23335;DHT22;11839;48.598;8.870;2024-01-15T08:00:48;2.90;99.90
23335;DHT22;11839;48.598;8.870;2024-01-15T08:03:15;2.60;99.90
23335;DHT22;11839;48.598;8.870;2024-01-15T08:05:42;2.80;99.90
23335;DHT22;11839;48.598;8.870;2024-01-15T08:08:09;2.90;99.90
23335;DHT22;11839;48.598;8.870;2024-01-15T08:10:35;3.00;99.90
23335;DHT22;11839;48.598;8.870;2024-01-15T08:13:03;2.90;99.90
23335;DHT22;11839;48.598;8.870;2024-01-15T08:15:29;3.00;99.90
23335;DHT22;11839;48.598;8.870;2024-01-15T08:17:56;2.80;99.90
23335;DHT22;11839;48.598;8.870;2024-01-15T08:20:23;2.90;99.90
23335;DHT22;11839;48.598;8.870;2024-01-15T08:22:50;2.60;99.90
23335;DHT22;11839;48.598;8.870;2024-01-15T08:25:18;2.60;99.90
23335;DHT22;11839;48.598;8.870;2024-01-15T08:27:44;2.50;99.90
23335;DHT22;11839;48.598;8.870;2024-01-15T08:30:14;2.60;99.90
23335;DHT22;11839;48.598;8.870;2024-01-15T08:32:42;2.70;99.90
23335;DHT22;11839;48.598;8.870;2024-01-15T08:35:09;2.70;99.90
23335;DHT22;11839;48.598;8.870;2024-01-15T08:37:35;2.60;99.90
23335;DHT22;11839;48.598;8.870;2024-01-15T08:40:03;2.50;99.90
23335;DHT22;11839;48.598;8.870;2024-01-15T08:42:30;2.60;99.90
23335;DHT22;11839;48.598;8.870;2024-01-15T08:44:57;2.30;99.90
23335;DHT22;11839;48.598;8.870;2024-01-15T08:47:25;2.50;99.90
23335;DHT22;11839;48.598;8.870;2024-01-15T08:49:52;2.70;99.90
23335;DHT22;11839;48.598;8.870;2024-01-15T08:52:19;2.90;99.90
23335;DHT22;11839;48.598;8.870;2024-01-15T08:54:46;3.10;99.90
23335;DHT22;11839;48.598;8.870;2024-01-15T08:57:13;3.00;99.90
23335;DHT22;11839;48.598;8.870;2024-01-15T08:59:40;2.80;99.90
23335;DHT22;11839;48.598;8.870;2024-01-15T09:02:07;2.70;99.90
23335;DHT22;11839;48.598;8.870;2024-01-15T09:04:35;2.60;99.90
23335;DHT22;11839;48.598;8.870;2024-01-15T09:07:02;2.70;99.90
23335;DHT22;11839;48.598;8.870;2024-01-15T09:09:29;3.10;99.90
23335;DHT22;11839;48.598;8.870;2024-01-15T09:11:55;3.30;99.90
23335;DHT22;11839;48.598;8.870;2024-01-15T09:14:22;3.40;99.90
23335;DHT22;11839;48.598;8.870;2024-01-15T09:16:49;3.10;99.90
23335;DHT22;11839;48.598;8.870;2024-01-15T09:19:16;3.10;99.90
23335;DHT22;11839;48.598;8.870;2024-01-15T09:21:44;3.10;99.90
23335;DHT22;11839;48.598;8.870;2024-01-15T09:24:11;3.40;99.90
23335;DHT22;11839;48.598;8.870;2024-01-15T09:26:38;3.80;99.90
23335;DHT22;11839;48.598;8.870;2024-01-15T09:29:05;3.50;99.90
23335;DHT22;11839;48.598;8.870;2024-01-15T09:31:33;3.70;99.90
23335;DHT22;11839;48.598;8.870;2024-01-15T09:33:59;3.50;99.90
23335;DHT22;11839;48.598;8.870;2024-01-15T09:36:29;3.50;99.90
23335;DHT22;11839;48.598;8.870;2024-01-15T09:38:58;3.30;99.90
23335;DHT22;11839;48.598;8.870;2024-01-15T09:41:25;3.20;99.90
23335;DHT22;11839;48.598;8.870;2024-01-15T09:43:52;3.30;99.90
23335;DHT22;11839;48.598;8.870;2024-01-15T09:46:19;3.50;99.90
23335;DHT22;11839;48.598;8.870;2024-01-15T09:48:47;3.40;99.90
23335;DHT22;11839;48.598;8.870;2024-01-15T09:51:15;3.70;99.90
23335;DHT22;11839;48.598;8.870;2024-01-15T09:53:43;3.80;99.90
23335;DHT22;11839;48.598;8.870;2024-01-15T09:56:12;3.70;99.90
23335;DHT22;11839;48.598;8.870;2024-01-15T09:58:39;3.70;99.90
23335;DHT22;11839;48.598;8.870;2024-01-15T10:01:08;3.60;99.90
23335;DHT22;11839;48.598;8.870;2024-01-15T10:03:35;3.60;99.90
23335;DHT22;11839;48.598;8.870;2024-01-15T10:06:03;3.50;99.90
23335;DHT22;11839;48.598;8.870;2024-01-15T10:08:31;3.20;99.90
23335;DHT22;11839;48.598;8.870;2024-01-15T10:10:58;3.10;99.90
23335;DHT22;11839;48.598;8.870;2024-01-15T10:13:26;3.10;99.90
23335;DHT22;11839;48.598;8.870;2024-01-15T10:15:54;3.20;99.90
23335;DHT22;11839;48.598;8.870;2024-01-15T10:18:20;3.50;99.90
23335;DHT22;11839;48.598;8.870;2024-01-15T10:20:47;3.20;99.90
23335;DHT22;11839;48.598;8.870;2024-01-15T10:23:14;3.20;99.90
23335;DHT22;11839;48.598;8.870;2024-01-15T10:25:41;3.30;99.90
23335;DHT22;11839;48.598;8.870;2024-01-15T10:28:08;3.40;99.90
23335;DHT22;11839;48.598;8.870;2024-01-15T10:30:36;3.60;99.90
23335;DHT22;11839;48.598;8.870;2024-01-15T10:33:04;3.60;99.90
23335;DHT22;11839;48.598;8.870;2024-01-15T10:35:32;3.70;99.90
23335;DHT22;11839;48.598;8.870;2024-01-15T10:37:59;3.30;99.90
23335;DHT22;11839;48.598;8.870;2024-01-15T10:40:26;3.60;99.90
23335;DHT22;11839;48.598;8.870;2024-01-15T10:42:53;3.70;99.90
23335;DHT22;11839;48.598;8.870;2024-01-15T10:45:20;3.70;99.90
23335;DHT22;11839;48.598;8.870;2024-01-15T10:47:48;3.90;99.90
23335;DHT22;11839;48.598;8.870;2024-01-15T10:50:15;4.10;99.90
23335;DHT22;11839;48.598;8.870;2024-01-15T10:52:42;3.90;99.90
23335;DHT22;11839;48.598;8.870;2024-01-15T10:55:10;3.60;99.90
23335;DHT22;11839;48.598;8.870;2024-01-15T10:57:37;3.70;99.90
23335;DHT22;11839;48.598;8.870;2024-01-15T11:00:05;3.10;99.90
23335;DHT22;11839;48.598;8.870;2024-01-15T11:02:33;3.20;99.90
23335;DHT22;11839;48.598;8.870;2024-01-15T11:05:02;3.10;99.90
23335;DHT22;11839;48.598;8.870;2024-01-15T11:07:30;3.00;99.90
23335;DHT22;11839;48.598;8.870;2024-01-15T11:09:57;3.20;99.90
23335;DHT22;11839;48.598;8.870;2024-01-15T11:12:24;3.20;99.90
23335;DHT22;11839;48.598;8.870;2024-01-15T11:14:51;3.30;99.90
23335;DHT22;11839;48.598;8.870;2024-01-15T11:17:20;3.20;99.90
23335;DHT22;11839;48.598;8.870;2024-01-15T11:19:48;3.30;99.90
23335;DHT22;11839;48.598;8.870;2024-01-15T11:22:48;3.10;99.90
23335;DHT22;11839;48.598;8.870;2024-01-15T11:25:17;3.10;99.90
23335;DHT22;11839;48.598;8.870;2024-01-15T11:27:45;3.10;99.90
23335;DHT22;11839;48.598;8.870;2024-01-15T11:30:17;3.40;99.90
23335;DHT22;11839;48.598;8.870;2024-01-15T11:32:45;3.40;99.90
23335;DHT22;11839;48.598;8.870;2024-01-15T11:35:13;3.30;99.90
23335;DHT22;11839;48.598;8.870;2024-01-15T11:38:00;3.40;99.90
23335;DHT22;11839;48.598;8.870;2024-01-15T11:40:38;3.30;99.90
23335;DHT22;11839;48.598;8.870;2024-01-15T11:43:06;3.30;99.90
23335;DHT22;11839;48.598;8.870;2024-01-15T11:45:35;3.30;99.90
23335;DHT22;11839;48.598;8.870;2024-01-15T11:48:12;3.40;99.90
23335;DHT22;11839;48.598;8.870;2024-01-15T11:50:41;3.20;99.90
23335;DHT22;11839;48.598;8.870;2024-01-15T11:53:25;3.40;99.90
23335;DHT22;11839;48.598;8.870;2024-01-15T11:55:52;3.20;99.90
23335;DHT22;11839;48.598;8.870;2024-01-15T11:58:23;3.30;99.90
23335;DHT22;11839;48.598;8.870;2024-01-15T12:00:51;3.40;99.90
23335;DHT22;11839;48.598;8.870;2024-01-15T12:03:20;3.50;99.90
23335;DHT22;11839;48.598;8.870;2024-01-15T12:05:48;3.40;99.90
23335;DHT22;11839;48.598;8.870;2024-01-15T12:08:22;3.20;99.90
23335;DHT22;11839;48.598;8.870;2024-01-15T12:10:49;3.50;99.90
23335;DHT22;11839;48.598;8.870;2024-01-15T12:13:16;3.30;99.90
23335;DHT22;11839;48.598;8.870;2024-01-15T12:15:45;3.30;99.90
23335;DHT22;11839;48.598;8.870;2024-01-15T12:18:13;3.40;99.90
23335;DHT22;11839;48.598;8.870;2024-01-15T12:20:41;3.50;99.90
23335;DHT22;11839;48.598;8.870;2024-01-15T12:23:09;3.50;99.90
23335;DHT22;11839;48.598;8.870;2024-01-15T12:25:38;3.40;99.90
23335;DHT22;11839;48.598;8.870;2024-01-15T12:28:05;3.20;99.90
23335;DHT22;11839;48.598;8.870;2024-01-15T12:30:33;3.10;99.90
23335;DHT22;11839;48.598;8.870;2024-01-15T12:33:01;3.20;99.90
23335;DHT22;11839;48.598;8.870;2024-01-15T12:35:29;3.20;99.90
23335;DHT22;11839;48.598;8.870;2024-01-15T12:37:56;3.30;99.90
23335;DHT22;11839;48.598;8.870;2024-01-15T12:40:23;3.60;99.90
23335;DHT22;11839;48.598;8.870;2024-01-15T12:42:52;3.70;99.90
23335;DHT22;11839;48.598;8.870;2024-01-15T12:45:19;3.70;99.90
23335;DHT22;11839;48.598;8.870;2024-01-15T12:47:46;3.80;99.90
23335;DHT22;11839;48.598;8.870;2024-01-15T12:50:13;3.70;99.90
23335;DHT22;11839;48.598;8.870;2024-01-15T12:52:40;3.80;99.90
23335;DHT22;11839;48.598;8.870;2024-01-15T12:55:08;3.60;99.90
23335;DHT22;11839;48.598;8.870;2024-01-15T12:57:35;3.50;99.90
23335;DHT22;11839;48.598;8.870;2024-01-15T13:00:05;3.50;99.90
23335;DHT22;11839;48.598;8.870;2024-01-15T13:02:38;3.60;99.90
23335;DHT22;11839;48.598;8.870;2024-01-15T13:05:08;3.70;99.90
23335;DHT22;11839;48.598;8.870;2024-01-15T13:07:36;3.90;99.90
23335;DHT22;11839;48.598;8.870;2024-01-15T13:10:03;3.70;99.90
23335;DHT22;11839;48.598;8.870;2024-01-15T13:12:30;3.90;99.90
23335;DHT22;11839;48.598;8.870;2024-01-15T13:14:58;3.80;99.90
23335;DHT22;11839;48.598;8.870;2024-01-15T13:17:26;4.00;99.90
23335;DHT22;11839;48.598;8.870;2024-01-15T13:19:54;4.00;99.90
23335;DHT22;11839;48.598;8.870;2024-01-15T13:22:20;3.80;99.90
23335;DHT22;11839;48.598;8.870;2024-01-15T13:24:47;3.90;99.90
23335;DHT22;11839;48.598;8.870;2024-01-15T13:27:14;4.00;99.90
23335;DHT22;11839;48.598;8.870;2024-01-15T13:29:41;3.90;99.90
23335;DHT22;11839;48.598;8.870;2024-01-15T13:32:09;4.00;99.90
23335;DHT22;11839;48.598;8.870;2024-01-15T13:34:39;4.20;99.90
23335;DHT22;11839;48.598;8.870;2024-01-15T13:37:06;4.20;99.90
23335;DHT22;11839;48.598;8.870;2024-01-15T13:39:35;4.10;99.90
23335;DHT22;11839;48.598;8.870;2024-01-15T13:42:02;4.40;99.90
23335;DHT22;11839;48.598;8.870;2024-01-15T13:44:29;4.50;99.90
23335;DHT22;11839;48.598;8.870;2024-01-15T13:47:02;4.40;99.90
23335;DHT22;11839;48.598;8.870;2024-01-15T13:49:30;4.30;99.90
23335;DHT22;11839;48.598;8.870;2024-01-15T13:52:00;4.60;99.90
23335;DHT22;11839;48.598;8.870;2024-01-15T13:54:29;4.60;99.90
23335;DHT22;11839;48.598;8.870;2024-01-15T13:56:56;4.60;99.90
23335;DHT22;11839;48.598;8.870;2024-01-15T13:59:24;4.30;99.90
23335;DHT22;11839;48.598;8.870;2024-01-15T14:01:51;4.50;99.90
23335;DHT22;11839;48.598;8.870;2024-01-15T14:04:18;4.30;99.90
23335;DHT22;11839;48.598;8.870;2024-01-15T14:06:45;4.40;99.90
23335;DHT22;11839;48.598;8.870;2024-01-15T14:09:13;4.30;99.90
23335;DHT22;11839;48.598;8.870;2024-01-15T14:11:40;4.30;99.90
23335;DHT22;11839;48.598;8.870;2024-01-15T14:14:07;4.30;99.90
23335;DHT22;11839;48.598;8.870;2024-01-15T14:16:34;4.50;99.90
23335;DHT22;11839;48.598;8.870;2024-01-15T14:19:01;4.70;99.90
23335;DHT22;11839;48.598;8.870;2024-01-15T14:21:28;4.50;99.90
23335;DHT22;11839;48.598;8.870;2024-01-15T14:23:55;4.50;99.90
23335;DHT22;11839;48.598;8.870;2024-01-15T14:26:23;4.40;99.90
23335;DHT22;11839;48.598;8.870;2024-01-15T14:28:50;4.40;99.90
23335;DHT22;11839;48.598;8.870;2024-01-15T14:31:18;4.20;99.90
23335;DHT22;11839;48.598;8.870;2024-01-15T14:33:46;4.40;99.90
23335;DHT22;11839;48.598;8.870;2024-01-15T14:36:13;4.10;99.90
23335;DHT22;11839;48.598;8.870;2024-01-15T14:38:39;4.20;99.90
23335;DHT22;11839;48.598;8.870;2024-01-15T14:41:06;3.70;99.90
23335;DHT22;11839;48.598;8.870;2024-01-15T14:43:34;3.50;99.90
23335;DHT22;11839;48.598;8.870;2024-01-15T14:46:01;3.60;99.90
23335;DHT22;11839;48.598;8.870;2024-01-15T14:48:28;3.60;99.90
23335;DHT22;11839;48.598;8.870;2024-01-15T14:50:55;3.70;99.90
23335;DHT22;11839;48.598;8.870;2024-01-15T14:53:22;3.50;99.90
23335;DHT22;11839;48.598;8.870;2024-01-15T14:55:49;3.20;99.90
23335;DHT22;11839;48.598;8.870;2024-01-15T14:58:15;2.50;99.90
23335;DHT22;11839;48.598;8.870;2024-01-15T15:00:43;2.30;99.90
23335;DHT22;11839;48.598;8.870;2024-01-15T15:03:11;2.10;99.90
23335;DHT22;11839;48.598;8.870;2024-01-15T15:05:39;1.80;99.90
23335;DHT22;11839;48.598;8.870;2024-01-15T15:08:06;2.00;99.90
23335;DHT22;11839;48.598;8.870;2024-01-15T15:10:34;2.10;99.90
23335;DHT22;11839;48.598;8.870;2024-01-15T15:13:01;2.30;99.90
23335;DHT22;11839;48.598;8.870;2024-01-15T15:15:28;2.00;99.90
23335;DHT22;11839;48.598;8.870;2024-01-15T15:17:56;1.80;99.90
23335;DHT22;11839;48.598;8.870;2024-01-15T15:20:22;1.70;99.90
23335;DHT22;11839;48.598;8.870;2024-01-15T15:22:49;1.70;99.90
23335;DHT22;11839;48.598;8.870;2024-01-15T15:25:20;1.50;99.90
23335;DHT22;11839;48.598;8.870;2024-01-15T15:27:47;1.40;99.90
23335;DHT22;11839;48.598;8.870;2024-01-15T15:30:16;1.30;99.90
23335;DHT22;11839;48.598;8.870;2024-01-15T15:32:43;1.20;99.90
23335;DHT22;11839;48.598;8.870;2024-01-15T15:35:11;1.60;99.90
23335;DHT22;11839;48.598;8.870;2024-01-15T15:37:38;1.80;99.90
23335;DHT22;11839;48.598;8.870;2024-01-15T15:40:06;1.70;99.90
23335;DHT22;11839;48.598;8.870;2024-01-15T15:42:34;1.20;99.90
23335;DHT22;11839;48.598;8.870;2024-01-15T15:45:01;1.30;99.90
23335;DHT22;11839;48.598;8.870;2024-01-15T15:47:28;1.50;99.90
23335;DHT22;11839;48.598;8.870;2024-01-15T15:49:54;1.60;99.90
23335;DHT22;11839;48.598;8.870;2024-01-15T15:52:22;1.60;99.90
23335;DHT22;11839;48.598;8.870;2024-01-15T15:54:49;1.80;99.90
23335;DHT22;11839;48.598;8.870;2024-01-15T15:57:16;1.80;99.90
23335;DHT22;11839;48.598;8.870;2024-01-15T15:59:43;1.60;99.90